Time;durP1;ratioP1;P1;durP2;ratioP2;P2;SDS_P1;SDS_P2;PMS_P1;PMS_P2;Temp;Humidity;BMP_temperature;BMP_pressure;BME280_temperature;BME280_humidity;BME280_pressure;Samples;Min_cycle;Max_cycle;Signal;HPM_P1;HPM_P2
2022/01/23 00:01:51;;;;;;;28.37;23.20;;;7.00;99.90;;;;;;5125017;28;20627;-87
2022/01/23 00:04:40;;;;;;;28.40;22.43;;;6.90;99.90;;;;;;5114611;28;20677;-88
2022/01/23 00:07:13;;;;;;;27.47;22.33;;;6.70;99.90;;;;;;5116148;28;20184;-85
2022/01/23 00:10:10;;;;;;;28.93;22.53;;;6.60;99.90;;;;;;5116156;28;20204;-86
2022/01/23 00:12:46;;;;;;;31.17;22.93;;;6.60;99.90;;;;;;5115817;28;20254;-88
2022/01/23 00:18:01;;;;;;;28.47;21.63;;;6.50;99.90;;;;;;5115525;28;20280;-88
2022/01/23 00:20:31;;;;;;;28.63;23.57;;;6.50;99.90;;;;;;5116306;27;20201;-88
2022/01/23 00:23:01;;;;;;;28.70;21.93;;;6.60;99.90;;;;;;5116129;28;20287;-88
2022/01/23 00:31:17;;;;;;;30.00;23.20;;;6.50;99.90;;;;;;5114864;28;20258;-90
2022/01/23 00:33:51;;;;;;;29.20;23.67;;;6.40;99.90;;;;;;5114514;28;20679;-89
2022/01/23 00:36:23;;;;;;;31.10;24.40;;;6.40;99.90;;;;;;5114773;28;20201;-91
2022/01/23 00:38:52;;;;;;;32.00;23.17;;;6.40;99.90;;;;;;5115475;27;20624;-89
2022/01/23 00:41:22;;;;;;;30.33;24.23;;;6.40;99.90;;;;;;5115782;28;20188;-88
2022/01/23 00:43:55;;;;;;;34.13;25.00;;;6.40;99.90;;;;;;5115549;28;20200;-88
2022/01/23 00:46:32;;;;;;;30.33;23.90;;;6.40;99.90;;;;;;5115576;28;20200;-85
2022/01/23 00:49:25;;;;;;;30.20;24.73;;;6.40;99.90;;;;;;5115465;28;20628;-90
2022/01/23 00:51:55;;;;;;;33.73;24.83;;;6.30;99.90;;;;;;5115486;27;20224;-90
2022/01/23 00:54:29;;;;;;;31.30;25.03;;;6.30;99.90;;;;;;5115040;28;20247;-90
2022/01/23 00:57:03;;;;;;;33.38;29.17;;;6.30;99.90;;;;;;5114928;28;20420;-91
2022/01/23 00:59:32;;;;;;;32.17;26.43;;;6.40;99.90;;;;;;5114846;27;20208;-86
2022/01/23 01:02:05;;;;;;;32.77;26.20;;;6.50;99.90;;;;;;5115422;28;20203;-88
2022/01/23 01:04:33;;;;;;;32.67;26.27;;;6.60;99.90;;;;;;5113394;28;20204;-88
2022/01/23 01:07:07;;;;;;;36.53;26.07;;;6.70;99.90;;;;;;5114706;28;20200;-86
2022/01/23 01:09:40;;;;;;;32.67;25.90;;;6.70;99.90;;;;;;5119359;27;20210;-87
2022/01/23 01:12:14;;;;;;;35.77;26.97;;;6.80;99.90;;;;;;5135396;27;20200;-89
2022/01/23 01:15:01;;;;;;;34.30;27.90;;;6.80;99.90;;;;;;5134668;27;20215;-90
2022/01/23 01:17:42;;;;;;;34.07;26.93;;;6.70;99.90;;;;;;5133940;27;20199;-89
2022/01/23 01:31:44;;;;;;;38.80;30.17;;;7.00;99.90;;;;;;5134858;27;20219;-88
2022/01/23 01:34:22;;;;;;;37.10;29.90;;;6.90;99.90;;;;;;5134773;27;20230;-85
2022/01/23 01:36:56;;;;;;;33.10;27.50;;;6.80;99.90;;;;;;5135201;27;20211;-86
2022/01/23 01:39:29;;;;;;;42.87;29.63;;;6.70;99.90;;;;;;5134871;27;20252;-87
2022/01/23 01:41:59;;;;;;;35.70;28.63;;;6.70;99.90;;;;;;5134891;27;20210;-86
2022/01/23 01:44:32;;;;;;;38.40;29.90;;;6.60;99.90;;;;;;5134988;27;20214;-85
2022/01/23 01:46:59;;;;;;;37.83;28.83;;;6.60;99.90;;;;;;5139165;27;20204;-87
2022/01/23 01:49:29;;;;;;;38.23;29.50;;;6.60;99.90;;;;;;5139053;27;20203;-89
2022/01/23 01:52:04;;;;;;;35.83;29.67;;;6.50;99.90;;;;;;5139090;27;20203;-89
2022/01/23 01:54:34;;;;;;;37.87;30.07;;;6.50;99.90;;;;;;5139595;27;20215;-89
2022/01/23 01:57:08;;;;;;;41.03;30.90;;;6.50;99.90;;;;;;5139795;27;20207;-89
2022/01/23 02:00:11;;;;;;;42.60;29.97;;;6.40;99.90;;;;;;5139851;27;20622;-84
2022/01/23 02:08:25;;;;;;;46.57;31.57;;;6.50;99.90;;;;;;5139114;27;20736;-89
2022/01/23 02:11:05;;;;;;;38.50;30.53;;;6.50;99.90;;;;;;5138926;27;20291;-88
2022/01/23 02:13:44;;;;;;;42.10;30.87;;;6.40;99.90;;;;;;5138609;27;20188;-86
2022/01/23 02:16:40;;;;;;;38.97;30.57;;;6.30;99.90;;;;;;5139113;27;20192;-89
2022/01/23 02:25:12;;;;;;;42.33;31.60;;;6.20;99.90;;;;;;5138711;27;20199;-88
2022/01/23 02:53:28;;;;;;;41.20;32.50;;;6.50;99.90;;;;;;5137429;27;20199;-88
2022/01/23 02:56:01;;;;;;;40.90;31.73;;;6.60;99.90;;;;;;5136292;27;20223;-87
2022/01/23 02:58:37;;;;;;;44.97;32.33;;;6.70;99.90;;;;;;5137338;27;20677;-89
2022/01/23 03:01:15;;;;;;;45.00;33.10;;;6.70;99.90;;;;;;5137510;27;20218;-88
2022/01/23 03:04:08;;;;;;;44.87;32.07;;;6.60;99.90;;;;;;5137634;27;20199;-85
2022/01/23 03:06:54;;;;;;;44.47;31.27;;;6.60;99.90;;;;;;5136475;27;20220;-88
2022/01/23 03:13:09;;;;;;;42.87;32.20;;;6.30;99.90;;;;;;5112194;27;20283;-92
2022/01/23 03:15:21;;;;;;;42.23;30.97;;;6.50;99.90;;;;;;5136820;27;20227;-85
2022/01/23 03:26:23;;;;;;;45.73;32.97;;;6.80;99.90;;;;;;5136919;27;20195;-88
2022/01/23 03:29:19;;;;;;;47.13;31.60;;;7.00;99.90;;;;;;5136732;27;20220;-87
2022/01/23 03:32:00;;;;;;;40.03;31.50;;;6.90;99.90;;;;;;5136333;27;20219;-89
2022/01/23 03:34:30;;;;;;;48.55;40.63;;;6.80;99.90;;;;;;5134860;27;20466;-90
2022/01/23 03:36:58;;;;;;;44.77;34.20;;;6.70;99.90;;;;;;5136926;27;20636;-88
2022/01/23 03:39:25;;;;;;;44.83;32.30;;;6.80;99.90;;;;;;5136664;27;20210;-89
2022/01/23 03:41:55;;;;;;;41.47;31.33;;;6.80;99.90;;;;;;5136541;27;20299;-88
2022/01/23 03:44:40;;;;;;;42.33;32.07;;;7.00;99.90;;;;;;5136983;27;20206;-88
2022/01/23 03:47:21;;;;;;;41.47;32.13;;;7.10;99.90;;;;;;5137303;27;20593;-87
2022/01/23 03:49:48;;;;;;;44.43;32.37;;;7.20;99.90;;;;;;5131188;27;20250;-86
2022/01/23 03:52:21;;;;;;;39.77;31.37;;;7.20;99.90;;;;;;5115080;28;20654;-87
2022/01/23 03:54:51;;;;;;;42.60;32.03;;;7.30;99.90;;;;;;5115062;27;20220;-88
2022/01/23 03:57:23;;;;;;;42.53;31.47;;;7.30;99.90;;;;;;5116047;27;20606;-89
2022/01/23 03:59:54;;;;;;;43.97;32.30;;;7.30;99.90;;;;;;5116735;28;20270;-86
2022/01/23 04:02:21;;;;;;;42.03;33.13;;;7.20;99.90;;;;;;5119618;27;20211;-88
2022/01/23 04:04:48;;;;;;;42.70;32.57;;;7.20;99.90;;;;;;5121425;27;20238;-85
2022/01/23 04:07:23;;;;;;;47.90;40.65;;;7.30;99.90;;;;;;5120104;28;20425;-87
2022/01/23 04:09:52;;;;;;;42.87;33.77;;;7.50;99.90;;;;;;5118869;28;20256;-85
2022/01/23 04:12:37;;;;;;;45.57;34.13;;;7.30;99.90;;;;;;5118033;28;20287;-86
2022/01/23 04:15:16;;;;;;;44.10;31.70;;;7.00;99.90;;;;;;5115932;28;20319;-87
2022/01/23 04:20:49;;;;;;;43.97;32.17;;;7.00;99.90;;;;;;5117179;28;20259;-90
2022/01/23 04:31:48;;;;;;;41.43;30.73;;;6.70;99.90;;;;;;5115073;28;20257;-87
2022/01/23 04:34:26;;;;;;;43.43;30.50;;;6.70;99.90;;;;;;5115111;27;20291;-87
2022/01/23 04:45:24;;;;;;;44.13;31.83;;;7.00;99.90;;;;;;5115016;28;20195;-88
2022/01/23 05:02:05;;;;;;;44.03;32.00;;;6.70;99.90;;;;;;5114741;28;20187;-88
2022/01/23 05:04:36;;;;;;;44.43;32.27;;;6.70;99.90;;;;;;5114532;28;20631;-87
2022/01/23 05:07:13;;;;;;;42.37;33.27;;;6.80;99.90;;;;;;5114635;28;20195;-85
2022/01/23 05:09:41;;;;;;;43.90;32.10;;;6.90;99.90;;;;;;5113616;28;20274;-86
2022/01/23 05:12:14;;;;;;;44.83;32.40;;;7.00;99.90;;;;;;5114956;28;20729;-86
2022/01/23 05:14:46;;;;;;;40.67;32.13;;;7.00;99.90;;;;;;5113171;28;20220;-87
2022/01/23 05:17:16;;;;;;;43.67;31.70;;;7.00;99.90;;;;;;5114312;28;20668;-87
2022/01/23 05:19:44;;;;;;;42.80;30.30;;;7.00;99.90;;;;;;5113985;27;20291;-85
2022/01/23 05:22:29;;;;;;;41.63;33.03;;;6.90;99.90;;;;;;5114125;28;20199;-87
2022/01/23 05:25:00;;;;;;;42.77;32.37;;;7.00;99.90;;;;;;5114513;28;20196;-90
2022/01/23 05:27:32;;;;;;;42.07;31.73;;;7.10;99.90;;;;;;5114333;28;20195;-86
2022/01/23 05:29:59;;;;;;;44.63;32.67;;;7.20;99.90;;;;;;5114566;28;20316;-87
2022/01/23 05:32:33;;;;;;;43.17;33.03;;;7.20;99.90;;;;;;5114125;28;20216;-90
2022/01/23 05:35:07;;;;;;;44.27;32.63;;;7.20;99.90;;;;;;5113117;28;20590;-88
2022/01/23 05:37:41;;;;;;;46.60;35.57;;;7.10;99.90;;;;;;5114480;28;20361;-88
2022/01/23 05:40:14;;;;;;;44.30;33.30;;;7.00;99.90;;;;;;5113949;28;20730;-87
2022/01/23 05:42:44;;;;;;;43.90;33.33;;;6.80;99.90;;;;;;5112682;28;20210;-89
2022/01/23 05:45:13;;;;;;;45.63;32.60;;;6.90;99.90;;;;;;5114239;28;20211;-88
2022/01/23 05:48:11;;;;;;;50.22;42.78;;;7.00;99.90;;;;;;5112962;27;20433;-87
2022/01/23 05:50:43;;;;;;;46.03;33.97;;;7.20;99.90;;;;;;5114533;28;20204;-86
2022/01/23 05:53:16;;;;;;;48.17;34.57;;;6.90;99.90;;;;;;5114130;28;20215;-88
2022/01/23 05:55:49;;;;;;;45.97;33.23;;;6.80;99.90;;;;;;5114449;27;20232;-88
2022/01/23 05:58:22;;;;;;;48.43;34.67;;;6.90;99.90;;;;;;5113998;28;20241;-90
2022/01/23 06:01:18;;;;;;;43.97;33.60;;;6.90;99.90;;;;;;5115825;27;20207;-89
2022/01/23 06:04:00;;;;;;;45.03;33.50;;;6.90;99.90;;;;;;5113674;28;20196;-90
2022/01/23 06:06:36;;;;;;;43.60;32.13;;;7.00;99.90;;;;;;5113706;27;20200;-91
2022/01/23 06:09:03;;;;;;;47.60;33.70;;;7.00;99.90;;;;;;5114052;27;20200;-85
2022/01/23 06:11:30;;;;;;;46.53;34.50;;;7.00;99.90;;;;;;5113838;28;20211;-86
2022/01/23 06:14:03;;;;;;;48.13;34.10;;;6.60;99.90;;;;;;5113750;27;20636;-85
2022/01/23 06:16:36;;;;;;;46.50;33.90;;;6.70;99.90;;;;;;5113542;28;20231;-90
2022/01/23 06:19:04;;;;;;;45.67;33.37;;;6.70;99.90;;;;;;5113600;28;20196;-89
2022/01/23 06:21:35;;;;;;;46.50;33.50;;;6.80;99.90;;;;;;5113546;28;20189;-89
2022/01/23 06:24:08;;;;;;;45.30;33.47;;;6.80;99.90;;;;;;5113954;28;20188;-86
2022/01/23 06:26:43;;;;;;;46.77;33.53;;;6.90;99.90;;;;;;5113198;28;20228;-87
2022/01/23 06:29:15;;;;;;;47.77;34.73;;;6.80;99.90;;;;;;5113734;28;20220;-87
2022/01/23 06:31:47;;;;;;;43.97;32.90;;;6.90;99.90;;;;;;5114166;27;20234;-89
2022/01/23 06:34:17;;;;;;;45.10;34.20;;;6.90;99.90;;;;;;5117147;28;20212;-88
2022/01/23 06:36:48;;;;;;;45.97;33.70;;;7.00;99.90;;;;;;5117173;27;20239;-85
2022/01/23 06:39:26;;;;;;;46.90;34.10;;;7.00;99.90;;;;;;5117602;28;20223;-87
2022/01/23 06:41:56;;;;;;;46.53;33.27;;;6.80;99.90;;;;;;5117438;27;20196;-86
2022/01/23 06:44:27;;;;;;;44.27;34.43;;;6.90;99.90;;;;;;5116193;28;20566;-88
2022/01/23 06:47:00;;;;;;;47.87;33.13;;;6.90;99.90;;;;;;5117041;28;20204;-87
2022/01/23 06:49:29;;;;;;;47.73;33.70;;;7.00;99.90;;;;;;5117255;28;20201;-85
2022/01/23 06:52:04;;;;;;;48.00;33.43;;;7.00;99.90;;;;;;5116763;28;20192;-87
2022/01/23 06:54:31;;;;;;;47.80;33.30;;;6.90;99.90;;;;;;5117090;27;20658;-87
2022/01/23 06:56:58;;;;;;;46.87;33.43;;;6.90;99.90;;;;;;5117010;27;20235;-85
2022/01/23 06:59:27;;;;;;;46.20;32.70;;;6.90;99.90;;;;;;5099100;28;20949;-86
2022/01/23 07:02:01;;;;;;;44.97;33.87;;;6.70;99.90;;;;;;5117115;27;20200;-87
2022/01/23 07:04:34;;;;;;;41.07;32.50;;;7.00;99.90;;;;;;5117155;27;20199;-86
2022/01/23 07:07:09;;;;;;;43.80;33.00;;;6.80;99.90;;;;;;5117007;27;20185;-85
2022/01/23 07:09:37;;;;;;;46.60;33.83;;;6.90;99.90;;;;;;5116717;28;20203;-86
2022/01/23 07:12:04;;;;;;;44.60;33.20;;;7.00;99.90;;;;;;5117007;28;20196;-87
2022/01/23 07:14:37;;;;;;;43.73;33.03;;;7.10;99.90;;;;;;5116597;27;20213;-87
2022/01/23 07:17:09;;;;;;;44.10;33.97;;;7.10;99.90;;;;;;5116775;28;20216;-87
2022/01/23 07:19:49;;;;;;;45.30;32.03;;;7.10;99.90;;;;;;5117090;28;20201;-86
2022/01/23 07:22:19;;;;;;;45.87;33.47;;;7.10;99.90;;;;;;5116983;28;20188;-88
2022/01/23 07:24:48;;;;;;;45.50;32.47;;;7.00;99.90;;;;;;5116663;28;20208;-86
2022/01/23 07:27:22;;;;;;;45.57;32.23;;;6.70;99.90;;;;;;5116589;27;20220;-86
2022/01/23 07:29:53;;;;;;;47.17;33.90;;;6.90;99.90;;;;;;5116520;28;20220;-85
2022/01/23 07:32:20;;;;;;;50.33;33.67;;;7.00;99.90;;;;;;5116458;27;20196;-87
2022/01/23 07:34:47;;;;;;;46.97;33.27;;;7.10;99.90;;;;;;5116459;27;20215;-88
2022/01/23 07:37:17;;;;;;;49.33;34.17;;;7.00;99.90;;;;;;5116424;27;20235;-85
2022/01/23 07:39:51;;;;;;;43.33;34.03;;;7.00;99.90;;;;;;5117412;27;20253;-88
2022/01/23 07:42:20;;;;;;;45.43;33.73;;;6.90;99.90;;;;;;5117075;28;20188;-86
2022/01/23 07:44:48;;;;;;;48.17;33.33;;;6.90;99.90;;;;;;5116990;28;20245;-85
2022/01/23 07:47:15;;;;;;;48.90;32.97;;;6.90;99.90;;;;;;5116951;28;20588;-85
2022/01/23 07:49:49;;;;;;;46.77;33.57;;;6.90;99.90;;;;;;5123097;27;20263;-85
2022/01/23 07:52:18;;;;;;;45.40;33.03;;;7.00;99.90;;;;;;5124826;28;20200;-85
2022/01/23 07:54:47;;;;;;;45.53;33.37;;;7.00;99.90;;;;;;5124244;28;20277;-86
2022/01/23 07:57:21;;;;;;;46.10;34.23;;;7.10;99.90;;;;;;5125078;28;20224;-85
2022/01/23 07:59:54;;;;;;;46.40;33.73;;;7.00;99.90;;;;;;5121367;27;20296;-85
2022/01/23 08:02:23;;;;;;;48.50;34.83;;;6.90;99.90;;;;;;5115905;27;20222;-86
2022/01/23 08:04:55;;;;;;;46.70;32.63;;;6.50;99.90;;;;;;5116034;28;20201;-85
2022/01/23 08:07:36;;;;;;;50.05;43.70;;;6.30;99.90;;;;;;5114782;27;20506;-85
2022/01/23 08:10:10;;;;;;;47.77;34.97;;;7.00;99.90;;;;;;5115617;28;20212;-86
2022/01/23 08:12:44;;;;;;;49.43;36.13;;;6.90;99.90;;;;;;5115416;27;20687;-84
2022/01/23 08:15:18;;;;;;;45.93;33.83;;;6.70;99.90;;;;;;5115518;28;20199;-87
2022/01/23 08:17:45;;;;;;;45.83;33.53;;;6.80;99.90;;;;;;5115354;28;20259;-89
2022/01/23 08:20:14;;;;;;;45.60;34.40;;;6.90;99.90;;;;;;5115236;27;20208;-87
2022/01/23 08:22:43;;;;;;;46.63;34.43;;;7.00;99.90;;;;;;5115546;28;20205;-85
2022/01/23 08:25:28;;;;;;;46.60;34.60;;;6.90;99.90;;;;;;5115531;28;20189;-86
2022/01/23 08:28:02;;;;;;;46.60;34.83;;;7.00;99.90;;;;;;5115722;27;20184;-86
2022/01/23 08:30:30;;;;;;;48.70;34.97;;;7.10;99.90;;;;;;5124571;27;20187;-86
2022/01/23 08:32:57;;;;;;;51.60;37.03;;;6.80;99.90;;;;;;5126786;27;20593;-86
2022/01/23 08:35:26;;;;;;;48.90;34.63;;;6.70;99.90;;;;;;5124351;27;20204;-86
2022/01/23 08:37:54;;;;;;;47.63;33.77;;;6.90;99.90;;;;;;5115341;28;20240;-85
2022/01/23 08:40:46;;;;;;;44.63;34.13;;;6.90;99.90;;;;;;5117090;27;20538;-86
2022/01/23 08:43:18;;;;;;;51.35;44.55;;;6.90;99.90;;;;;;5113729;28;20425;-86
2022/01/23 08:45:46;;;;;;;51.17;38.37;;;7.30;99.90;;;;;;5114864;28;20193;-85
2022/01/23 08:48:13;;;;;;;51.77;37.10;;;7.40;99.90;;;;;;5114912;28;20208;-86
2022/01/23 08:50:43;;;;;;;50.47;36.10;;;7.30;99.90;;;;;;5114712;28;20219;-84
2022/01/23 08:53:13;;;;;;;48.40;34.40;;;7.30;99.90;;;;;;5113525;28;20344;-85
2022/01/23 08:55:48;;;;;;;53.33;34.67;;;7.40;99.90;;;;;;5113915;27;20577;-87
2022/01/23 08:58:22;;;;;;;48.07;34.30;;;7.30;99.90;;;;;;5114301;28;20187;-87
2022/01/23 09:00:54;;;;;;;49.80;35.37;;;7.20;99.90;;;;;;5114536;27;20208;-85
2022/01/23 09:03:21;;;;;;;47.73;35.47;;;7.20;99.90;;;;;;5114597;28;20212;-84
2022/01/23 09:05:56;;;;;;;47.50;36.50;;;7.20;99.90;;;;;;5114372;28;20298;-86
2022/01/23 09:08:25;;;;;;;49.13;36.10;;;7.20;99.90;;;;;;5114624;28;20210;-87
2022/01/23 09:10:58;;;;;;;52.87;35.53;;;7.20;99.90;;;;;;5127379;27;20280;-88
2022/01/23 09:13:32;;;;;;;48.10;35.03;;;7.20;99.90;;;;;;5119261;27;20192;-86
2022/01/23 09:16:00;;;;;;;50.83;35.53;;;7.20;99.90;;;;;;5114128;28;20277;-86
2022/01/23 09:18:30;;;;;;;51.42;40.38;;;7.30;99.90;;;;;;5113880;28;20440;-86
2022/01/23 09:20:59;;;;;;;50.60;36.73;;;7.30;99.90;;;;;;5114217;28;20200;-86
2022/01/23 09:23:26;;;;;;;48.40;34.27;;;7.30;99.90;;;;;;5114456;28;20207;-86
2022/01/23 09:26:07;;;;;;;47.60;35.10;;;7.40;99.90;;;;;;5114155;28;20197;-84
2022/01/23 09:28:39;;;;;;;48.23;34.50;;;7.50;99.90;;;;;;5114117;28;20224;-85
2022/01/23 09:31:06;;;;;;;51.40;35.23;;;7.50;99.90;;;;;;5114376;28;20231;-87
2022/01/23 09:33:33;;;;;;;51.97;36.80;;;7.20;99.90;;;;;;5114305;27;20197;-86
2022/01/23 09:36:00;;;;;;;47.40;35.03;;;7.40;99.90;;;;;;5114269;27;20331;-87
2022/01/23 09:38:28;;;;;;;46.80;34.27;;;7.40;99.90;;;;;;5113887;28;20203;-85
2022/01/23 09:41:01;;;;;;;47.10;35.77;;;7.40;99.90;;;;;;5113972;28;20227;-86
2022/01/23 09:43:31;;;;;;;47.57;35.53;;;7.40;99.90;;;;;;5114126;28;20184;-85
2022/01/23 09:46:08;;;;;;;44.77;33.77;;;7.50;99.90;;;;;;5114489;27;20207;-86
2022/01/23 09:48:38;;;;;;;48.63;35.13;;;7.50;99.90;;;;;;5114101;28;20192;-85
2022/01/23 09:51:06;;;;;;;53.47;35.33;;;7.40;99.90;;;;;;5114308;28;20568;-84
2022/01/23 09:53:35;;;;;;;52.63;36.70;;;7.40;99.90;;;;;;5123163;27;20663;-86
2022/01/23 09:56:05;;;;;;;51.28;45.67;;;7.50;99.90;;;;;;5123312;28;20442;-85
2022/01/23 09:58:38;;;;;;;49.77;39.43;;;7.80;99.90;;;;;;5132323;28;20188;-84
2022/01/23 10:01:12;;;;;;;49.90;36.70;;;7.70;99.90;;;;;;5134727;27;20191;-84
2022/01/23 10:03:39;;;;;;;51.87;39.33;;;7.70;99.90;;;;;;5127745;27;20200;-90
2022/01/23 10:06:12;;;;;;;48.73;37.57;;;7.70;99.90;;;;;;5118792;27;20203;-86
2022/01/23 10:08:43;;;;;;;48.27;34.83;;;7.70;99.90;;;;;;5126584;27;20196;-87
2022/01/23 10:11:14;;;;;;;46.43;35.30;;;7.60;99.90;;;;;;5125593;27;20200;-88
2022/01/23 10:13:44;;;;;;;50.50;35.30;;;7.60;99.90;;;;;;5118600;28;20566;-89
2022/01/23 10:16:16;;;;;;;46.50;37.20;;;7.60;99.90;;;;;;5117119;28;20219;-91
2022/01/23 10:19:08;;;;;;;45.30;35.57;;;7.60;99.90;;;;;;5118478;27;20209;-87
2022/01/23 10:21:38;;;;;;;48.73;35.33;;;7.60;99.90;;;;;;5117077;28;20685;-86
2022/01/23 10:24:17;;;;;;;47.13;35.90;;;7.70;99.90;;;;;;5118381;27;20661;-88
2022/01/23 10:26:49;;;;;;;46.93;35.73;;;7.60;99.90;;;;;;5117566;28;20222;-89
2022/01/23 10:29:18;;;;;;;43.87;33.57;;;7.70;99.90;;;;;;5118182;28;20234;-89
2022/01/23 10:32:18;;;;;;;47.93;35.33;;;7.70;99.90;;;;;;5120798;27;20200;-87
2022/01/23 10:34:51;;;;;;;50.07;34.67;;;7.80;99.90;;;;;;5123063;27;20208;-91
2022/01/23 10:37:30;;;;;;;49.90;35.97;;;7.90;99.90;;;;;;5117766;28;20230;-87
2022/01/23 10:39:58;;;;;;;48.23;34.77;;;7.70;99.90;;;;;;5116359;28;20200;-83
2022/01/23 10:48:01;;;;;;;47.57;35.07;;;7.80;99.90;;;;;;5116836;28;20254;-83
2022/01/23 10:50:29;;;;;;;46.33;34.80;;;7.70;99.90;;;;;;5115475;28;20627;-83
2022/01/23 10:53:00;;;;;;;47.67;35.83;;;7.70;99.90;;;;;;5116646;28;20201;-86
2022/01/23 10:55:35;;;;;;;49.25;39.92;;;7.90;99.90;;;;;;5116169;27;20439;-85
2022/01/23 10:58:06;;;;;;;48.50;37.43;;;8.00;99.90;;;;;;5116593;28;20216;-84
2022/01/23 11:00:35;;;;;;;48.60;36.70;;;8.00;99.90;;;;;;5116538;27;20532;-83
2022/01/23 11:03:15;;;;;;;46.80;35.77;;;8.10;99.90;;;;;;5116457;28;20200;-83
2022/01/23 11:05:44;;;;;;;52.47;36.97;;;8.10;99.90;;;;;;5128964;27;20199;-84
2022/01/23 11:08:21;;;;;;;50.00;35.90;;;8.10;99.90;;;;;;5136605;27;20196;-82
2022/01/23 11:10:59;;;;;;;48.60;35.03;;;8.20;99.90;;;;;;5116046;28;20203;-85
2022/01/23 11:19:21;;;;;;;50.45;43.80;;;8.00;99.90;;;;;;5119141;27;20510;-82
2022/01/23 11:21:48;;;;;;;47.07;36.87;;;8.50;99.90;;;;;;5126800;27;20210;-81
2022/01/23 11:24:16;;;;;;;47.70;35.13;;;8.40;99.90;;;;;;5119981;27;20200;-81
2022/01/23 11:26:43;;;;;;;47.27;34.30;;;8.40;99.90;;;;;;5136665;27;20187;-85
2022/01/23 11:29:11;;;;;;;44.73;34.13;;;8.30;99.90;;;;;;5127743;27;20228;-86
2022/01/23 11:31:39;;;;;;;44.80;34.43;;;8.30;99.90;;;;;;5132793;27;20268;-81
2022/01/23 11:34:07;;;;;;;46.63;33.67;;;8.30;99.90;;;;;;5135495;27;20199;-82
2022/01/23 11:36:37;;;;;;;56.20;33.47;;;8.40;99.90;;;;;;5125864;27;20228;-84
2022/01/23 11:39:12;;;;;;;44.57;32.73;;;8.20;99.90;;;;;;5118615;27;20197;-83
2022/01/23 11:50:44;;;;;;;44.13;34.93;;;7.90;99.90;;;;;;5068600;28;20217;-85
2022/01/23 11:53:49;;;;;;;43.50;32.30;;;8.30;99.90;;;;;;5072736;28;20649;-84
2022/01/23 11:56:41;;;;;;;42.37;31.07;;;8.30;99.90;;;;;;5107416;27;20203;-86
2022/01/23 11:59:32;;;;;;;42.40;31.80;;;8.30;99.90;;;;;;5126254;27;20231;-84
2022/01/23 12:02:38;;;;;;;43.97;32.83;;;8.30;99.90;;;;;;5115641;28;20192;-84
2022/01/23 12:05:29;;;;;;;46.42;39.75;;;8.40;99.90;;;;;;5114621;28;20435;-83
2022/01/23 12:11:40;;;;;;;44.40;33.10;;;8.40;99.90;;;;;;5115291;28;20204;-83
2022/01/23 12:17:19;;;;;;;41.47;32.10;;;8.20;99.90;;;;;;5093584;28;20224;-83
2022/01/23 12:19:52;;;;;;;45.73;32.70;;;8.20;99.90;;;;;;5114978;28;20197;-86
2022/01/23 12:22:35;;;;;;;44.20;31.67;;;8.40;99.90;;;;;;5115389;28;20276;-83
2022/01/23 12:25:18;;;;;;;42.37;31.77;;;8.40;99.90;;;;;;5116152;28;20200;-83
2022/01/23 12:27:48;;;;;;;44.90;34.80;;;8.40;99.90;;;;;;5097311;28;20417;-85
2022/01/23 12:30:33;;;;;;;41.73;32.43;;;8.40;99.90;;;;;;5114485;28;20544;-83
2022/01/23 12:33:26;;;;;;;42.53;32.40;;;8.40;99.90;;;;;;5113738;28;20553;-83
2022/01/23 12:35:57;;;;;;;44.47;31.67;;;8.40;99.90;;;;;;5087276;28;20212;-84
2022/01/23 12:38:33;;;;;;;49.13;31.97;;;8.40;99.90;;;;;;5116330;28;20208;-84
2022/01/23 12:41:23;;;;;;;42.87;31.23;;;8.30;99.90;;;;;;5116347;27;20207;-84
2022/01/23 12:43:52;;;;;;;44.20;32.73;;;8.40;99.90;;;;;;5116461;28;20669;-88
2022/01/23 12:46:33;;;;;;;42.23;31.03;;;8.40;99.90;;;;;;5116136;28;20201;-85
2022/01/23 12:49:19;;;;;;;42.07;31.53;;;8.30;99.90;;;;;;5114995;28;20615;-87
2022/01/23 12:51:47;;;;;;;41.77;31.57;;;8.10;99.90;;;;;;5115042;27;20212;-87
2022/01/23 12:54:22;;;;;;;41.50;32.17;;;8.10;99.90;;;;;;5115623;27;20208;-89
2022/01/23 12:56:51;;;;;;;50.07;33.50;;;8.00;99.90;;;;;;5114908;28;20290;-85
2022/01/23 12:59:30;;;;;;;46.23;34.27;;;8.20;99.90;;;;;;5115317;28;20196;-86
2022/01/23 13:02:01;;;;;;;41.87;31.60;;;8.30;99.90;;;;;;5114528;28;20205;-86
2022/01/23 13:04:41;;;;;;;43.67;32.60;;;8.20;99.90;;;;;;5114696;27;20647;-91
2022/01/23 13:07:20;;;;;;;44.63;32.37;;;8.30;99.90;;;;;;5116877;27;20203;-83
2022/01/23 13:09:54;;;;;;;52.90;33.30;;;8.10;99.90;;;;;;5115279;27;20204;-87
2022/01/23 13:15:21;;;;;;;44.33;35.67;;;8.20;99.90;;;;;;5103653;27;20199;-85
2022/01/23 13:18:05;;;;;;;48.60;34.33;;;8.10;99.90;;;;;;5125912;27;20227;-87
2022/01/23 13:32:05;;;;;;;43.90;32.00;;;7.40;99.90;;;;;;5136301;27;20305;-86
2022/01/23 13:34:36;;;;;;;46.10;32.67;;;7.20;99.90;;;;;;5118409;27;20196;-87
2022/01/23 13:37:09;;;;;;;45.53;32.50;;;7.40;99.90;;;;;;5119177;28;20212;-86
2022/01/23 13:39:50;;;;;;;44.43;33.17;;;7.50;99.90;;;;;;5116158;27;20212;-89
2022/01/23 13:54:16;;;;;;;42.97;30.63;;;8.00;99.90;;;;;;5114466;28;20218;-87
2022/01/23 13:59:37;;;;;;;43.83;31.40;;;7.70;99.90;;;;;;5132741;28;20215;-87
2022/01/23 14:02:15;;;;;;;49.63;32.67;;;7.80;99.90;;;;;;5132037;28;20282;-88
2022/01/23 14:04:56;;;;;;;44.10;32.17;;;7.60;99.90;;;;;;5134145;28;20263;-90
2022/01/23 14:07:25;;;;;;;48.43;33.50;;;7.70;99.90;;;;;;5128910;28;20562;-90
2022/01/23 14:10:21;;;;;;;45.67;33.37;;;7.70;99.90;;;;;;5122693;28;20208;-88
2022/01/23 14:13:04;;;;;;;49.37;42.43;;;7.70;99.90;;;;;;5113913;28;20829;-88
2022/01/23 14:15:31;;;;;;;44.53;33.87;;;7.60;99.90;;;;;;5114825;28;20220;-86
2022/01/23 14:18:07;;;;;;;44.23;34.20;;;7.60;99.90;;;;;;5114160;27;20228;-86
2022/01/23 14:20:41;;;;;;;47.20;33.33;;;7.60;99.90;;;;;;5114956;28;20204;-90
2022/01/23 14:23:13;;;;;;;43.73;32.30;;;7.50;99.90;;;;;;5115867;28;20223;-89
2022/01/23 14:25:48;;;;;;;44.90;31.43;;;7.50;99.90;;;;;;5118633;28;20212;-90
2022/01/23 14:28:19;;;;;;;46.07;31.93;;;7.40;99.90;;;;;;5121016;28;20226;-90
2022/01/23 14:30:48;;;;;;;43.70;31.33;;;7.30;99.90;;;;;;5123757;28;20200;-91
2022/01/23 14:33:18;;;;;;;44.73;31.43;;;7.10;99.90;;;;;;5124382;27;20202;-93
2022/01/23 14:35:47;;;;;;;49.43;33.13;;;7.10;99.90;;;;;;5121206;27;20766;-90
2022/01/23 14:38:15;;;;;;;46.97;32.43;;;7.00;99.90;;;;;;5120783;28;20239;-88
2022/01/23 14:40:54;;;;;;;45.17;30.97;;;7.00;99.90;;;;;;5119763;27;20204;-90
2022/01/23 14:43:20;;;;;;;47.90;32.47;;;7.00;99.90;;;;;;5120270;27;20211;-89
2022/01/23 14:45:53;;;;;;;42.87;32.03;;;7.20;99.90;;;;;;5119945;28;20760;-91
2022/01/23 14:48:21;;;;;;;50.40;34.93;;;7.30;99.90;;;;;;5118724;28;20240;-90
2022/01/23 14:50:54;;;;;;;47.43;33.17;;;7.30;99.90;;;;;;5119390;28;20189;-89
2022/01/23 14:53:23;;;;;;;43.67;32.23;;;7.40;99.90;;;;;;5123222;27;20261;-90
2022/01/23 14:55:52;;;;;;;52.23;32.43;;;7.60;99.90;;;;;;5126190;27;20257;-91
2022/01/23 14:58:21;;;;;;;45.17;31.50;;;7.60;99.90;;;;;;5126604;28;20238;-90
2022/01/23 15:00:50;;;;;;;40.80;30.87;;;7.60;99.90;;;;;;5120319;28;20199;-86
2022/01/23 15:03:17;;;;;;;43.60;32.20;;;7.50;99.90;;;;;;5119432;27;20203;-88
2022/01/23 15:05:45;;;;;;;43.17;31.27;;;7.50;99.90;;;;;;5119465;27;20208;-87
2022/01/23 15:08:21;;;;;;;48.10;31.53;;;7.60;99.90;;;;;;5123882;27;20216;-86
2022/01/23 15:10:48;;;;;;;42.13;31.03;;;7.70;99.90;;;;;;5125950;28;20196;-86
2022/01/23 15:13:16;;;;;;;41.77;31.00;;;7.80;99.90;;;;;;5124707;27;20207;-85
2022/01/23 15:15:43;;;;;;;45.10;31.30;;;7.90;99.90;;;;;;5124877;28;20208;-86
2022/01/23 15:18:10;;;;;;;46.40;31.47;;;7.80;99.90;;;;;;5117472;28;20216;-85
2022/01/23 15:20:37;;;;;;;41.83;29.70;;;7.60;99.90;;;;;;5129817;28;20200;-84
2022/01/23 15:23:04;;;;;;;41.20;30.20;;;7.60;99.90;;;;;;5130686;27;20675;-86
2022/01/23 15:25:34;;;;;;;39.17;28.70;;;7.90;99.90;;;;;;5119948;28;20211;-84
2022/01/23 15:28:01;;;;;;;44.57;29.07;;;7.60;99.90;;;;;;5117515;27;20224;-85
2022/01/23 15:30:28;;;;;;;46.00;30.83;;;7.50;99.90;;;;;;5116238;28;20286;-89
2022/01/23 15:32:56;;;;;;;42.13;30.03;;;7.60;99.90;;;;;;5116335;27;20541;-86
2022/01/23 15:35:24;;;;;;;42.43;30.93;;;7.70;99.90;;;;;;5116380;28;20213;-85
2022/01/23 15:37:51;;;;;;;47.15;39.55;;;7.90;99.90;;;;;;5115147;27;20444;-85
2022/01/23 15:40:20;;;;;;;44.60;33.30;;;8.20;99.90;;;;;;5116033;28;20189;-88
2022/01/23 15:42:50;;;;;;;42.70;31.50;;;8.20;99.90;;;;;;5116180;27;20644;-85
2022/01/23 15:45:18;;;;;;;40.77;30.23;;;8.20;99.90;;;;;;5116049;28;20212;-87
2022/01/23 15:47:45;;;;;;;40.07;30.77;;;8.20;99.90;;;;;;5114626;28;20266;-85